createdAt,value
2022-08-23T00:01:39.562Z,101510.00
2022-08-23T00:04:12.126Z,101510.44
2022-08-23T00:06:41.631Z,101509.22
2022-08-23T00:09:09.187Z,101508.41
2022-08-23T00:11:39.015Z,101501.63
2022-08-23T00:14:09.963Z,101496.81
2022-08-23T00:16:37.558Z,101495.63
2022-08-23T00:19:07.235Z,101501.22
2022-08-23T00:21:36.552Z,101497.19
2022-08-23T00:24:05.397Z,101499.63
2022-08-23T00:27:04.515Z,101489.25
2022-08-23T00:29:33.417Z,101496.03
2022-08-23T00:32:01.060Z,101486.88
2022-08-23T00:34:28.327Z,101486.91
2022-08-23T00:36:55.948Z,101482.88
2022-08-23T00:39:23.318Z,101479.72
2022-08-23T00:41:51.141Z,101481.31
2022-08-23T00:44:48.411Z,101477.72
2022-08-23T00:47:35.037Z,101464.53
2022-08-23T00:50:23.903Z,101471.34
2022-08-23T00:53:05.288Z,101472.53
2022-08-23T00:55:35.331Z,101470.13
2022-08-23T00:58:02.823Z,101477.31
2022-08-23T01:00:30.824Z,101475.72
2022-08-23T01:02:57.918Z,101473.75
2022-08-23T01:05:34.726Z,101461.34
2022-08-23T01:08:01.992Z,101473.34
2022-08-23T01:10:28.994Z,101465.38
2022-08-23T01:13:07.341Z,101469.34
2022-08-23T01:15:41.399Z,101474.53
2022-08-23T01:18:10.813Z,101479.34
2022-08-23T01:21:13.825Z,101471.75
2022-08-23T01:23:45.697Z,101477.31
2022-08-23T01:26:21.525Z,101478.13
2022-08-23T01:28:51.589Z,101469.75
2022-08-23T01:31:20.552Z,101467.34
2022-08-23T01:33:57.416Z,101465.00
2022-08-23T01:36:24.826Z,101470.97
2022-08-23T01:38:53.102Z,101471.41
2022-08-23T01:41:20.244Z,101467.00
2022-08-23T01:43:47.675Z,101468.59
2022-08-23T01:46:20.384Z,101467.00
2022-08-23T01:48:49.623Z,101474.19
2022-08-23T01:51:19.377Z,101467.38
2022-08-23T01:53:46.955Z,101473.00
2022-08-23T01:56:15.941Z,101476.97
2022-08-23T01:58:42.829Z,101468.16
2022-08-23T02:01:11.309Z,101467.75
2022-08-23T02:03:38.435Z,101467.34
2022-08-23T02:06:05.968Z,101464.56
2022-08-23T02:08:52.494Z,101470.94
2022-08-23T02:11:24.720Z,101469.34
2022-08-23T02:13:53.631Z,101472.53
2022-08-23T02:16:28.409Z,101469.31
2022-08-23T02:18:57.406Z,101468.94
2022-08-23T02:21:24.821Z,101463.72
2022-08-23T02:23:51.778Z,101460.91
2022-08-23T02:26:19.207Z,101464.50
2022-08-23T02:28:51.309Z,101467.69
2022-08-23T02:31:18.433Z,101466.50
2022-08-23T02:33:46.833Z,101465.72
2022-08-23T02:36:14.908Z,101468.09
2022-08-23T02:38:42.004Z,101466.50
2022-08-23T02:41:09.890Z,101467.69
2022-08-23T02:43:40.959Z,101458.16
2022-08-23T02:46:09.498Z,101462.91
2022-08-23T02:48:37.697Z,101456.50
2022-08-23T02:51:08.399Z,101462.50
2022-08-23T02:53:36.059Z,101466.50
2022-08-23T02:56:06.867Z,101460.50
2022-08-23T02:58:48.219Z,101464.09
2022-08-23T03:01:28.584Z,101462.47
2022-08-23T03:04:00.873Z,101460.09
2022-08-23T03:06:29.701Z,101453.31
2022-08-23T03:08:57.705Z,101454.09
2022-08-23T03:11:25.469Z,101459.28
2022-08-23T03:13:54.735Z,101455.28
2022-08-23T03:16:22.586Z,101454.09
2022-08-23T03:18:50.844Z,101450.88
2022-08-23T03:21:19.359Z,101458.06
2022-08-23T03:23:48.469Z,101453.28
2022-08-23T03:26:16.186Z,101458.88
2022-08-23T03:28:44.996Z,101461.22
2022-08-23T03:31:14.736Z,101456.47
2022-08-23T03:33:53.421Z,101455.66
2022-08-23T03:36:21.123Z,101456.88
2022-08-23T03:38:56.799Z,101454.09
2022-08-23T03:41:24.412Z,101467.25
2022-08-23T03:43:52.721Z,101460.44
2022-08-23T03:46:23.749Z,101454.09
2022-08-23T03:48:59.694Z,101461.25
2022-08-23T03:51:32.459Z,101460.84
2022-08-23T03:54:00.846Z,101456.88
2022-08-23T03:56:51.511Z,101459.66
2022-08-23T03:59:18.640Z,101456.84
2022-08-23T04:01:45.598Z,101459.22
2022-08-23T04:04:12.842Z,101450.47
2022-08-23T04:06:52.668Z,101462.03
2022-08-23T04:09:19.558Z,101460.44
2022-08-23T04:11:47.653Z,101462.00
2022-08-23T04:14:15.851Z,101469.94
2022-08-23T04:16:43.163Z,101477.88
2022-08-23T04:19:13.227Z,101480.28
2022-08-23T04:21:52.800Z,101475.91
2022-08-23T04:24:21.661Z,101494.19
2022-08-23T04:26:49.658Z,101488.97
2022-08-23T04:29:24.816Z,101482.56
2022-08-23T04:32:05.644Z,101488.50
2022-08-23T04:34:36.968Z,101487.69
2022-08-23T04:37:03.945Z,101488.50
2022-08-23T04:39:56.346Z,101482.94
2022-08-23T04:42:25.145Z,101486.94
2022-08-23T04:44:52.553Z,101479.75
2022-08-23T04:47:20.600Z,101485.31
2022-08-23T04:49:49.651Z,101486.94
2022-08-23T04:52:19.405Z,101484.13
2022-08-23T04:54:47.757Z,101485.34
2022-08-23T04:57:32.611Z,101494.53
2022-08-23T05:00:00.725Z,101498.94
2022-08-23T05:02:27.916Z,101499.75
2022-08-23T05:04:56.145Z,101501.75
2022-08-23T05:07:30.876Z,101509.34
2022-08-23T05:10:13.171Z,101500.59
2022-08-23T05:12:43.180Z,101502.22
2022-08-23T05:15:10.941Z,101502.66
2022-08-23T05:17:42.525Z,101501.47
2022-08-23T05:20:10.423Z,101503.06
2022-08-23T05:22:41.562Z,101506.66
2022-08-23T05:25:51.568Z,101506.31
2022-08-23T05:28:49.746Z,101505.94
2022-08-23T05:31:20.474Z,101503.94
2022-08-23T05:34:07.881Z,101505.16
2022-08-23T05:36:55.095Z,101513.97
2022-08-23T05:39:36.672Z,101514.81
2022-08-23T05:42:14.084Z,101512.44
2022-08-23T05:44:42.501Z,101516.06
2022-08-23T05:47:12.903Z,101519.28
2022-08-23T05:50:06.177Z,101518.91
2022-08-23T05:52:36.355Z,101518.06
2022-08-23T05:55:03.823Z,101530.06
2022-08-23T05:57:49.509Z,101526.06
2022-08-23T06:00:16.548Z,101529.25
2022-08-23T06:02:46.967Z,101526.84
2022-08-23T06:05:14.470Z,101534.44
2022-08-23T06:07:44.320Z,101542.44
2022-08-23T06:10:15.837Z,101533.25
2022-08-23T06:12:47.855Z,101534.84
2022-08-23T06:15:15.418Z,101539.63
2022-08-23T06:17:42.696Z,101539.63
2022-08-23T06:20:10.610Z,101542.03
2022-08-23T06:22:58.531Z,101538.44
2022-08-23T06:25:25.555Z,101536.44
2022-08-23T06:27:58.390Z,101540.84
2022-08-23T06:30:27.260Z,101536.44
2022-08-23T06:33:13.985Z,101543.59
2022-08-23T06:36:17.345Z,101542.78
2022-08-23T06:39:06.668Z,101529.56
2022-08-23T06:42:34.456Z,101536.69
2022-08-23T06:45:01.629Z,101544.25
2022-08-23T06:47:37.268Z,101546.59
2022-08-23T06:50:04.836Z,101544.97
2022-08-23T06:52:51.219Z,101541.72
2022-08-23T06:55:47.103Z,101548.78
2022-08-23T06:58:37.204Z,101540.34
2022-08-23T07:01:51.596Z,101545.47
2022-08-23T07:04:25.801Z,101550.25
2022-08-23T07:07:15.137Z,101547.78
2022-08-23T07:09:42.382Z,101551.31
2022-08-23T07:12:10.979Z,101555.66
2022-08-23T07:14:42.404Z,101564.00
2022-08-23T07:17:11.224Z,101565.91
2022-08-23T07:19:38.802Z,101565.06
2022-08-23T07:22:06.570Z,101562.19
2022-08-23T07:24:34.132Z,101566.91
2022-08-23T07:27:07.169Z,101565.59
2022-08-23T07:29:38.288Z,101565.88
2022-08-23T07:32:05.653Z,101560.56
2022-08-23T07:34:33.633Z,101564.50
2022-08-23T07:37:01.843Z,101566.75
2022-08-23T07:39:31.809Z,101564.34
2022-08-23T07:42:01.749Z,101571.91
2022-08-23T07:44:48.984Z,101574.97
2022-08-23T07:47:21.763Z,101580.81
2022-08-23T07:49:48.876Z,101579.44
2022-08-23T07:52:15.827Z,101588.16
2022-08-23T07:54:48.351Z,101593.63
2022-08-23T07:57:34.327Z,101597.00
2022-08-23T08:00:21.467Z,101603.19
2022-08-23T08:02:59.708Z,101591.25
2022-08-23T08:05:36.125Z,101598.63
2022-08-23T08:08:04.631Z,101603.56
2022-08-23T08:10:32.605Z,101609.94
2022-08-23T08:12:59.747Z,101612.63
2022-08-23T08:15:27.325Z,101607.28
2022-08-23T08:18:02.586Z,101613.59
2022-08-23T08:20:50.588Z,101614.19
2022-08-23T08:23:44.160Z,101617.56
2022-08-23T08:26:49.881Z,101614.97
2022-08-23T08:29:17.883Z,101623.22
2022-08-23T08:31:51.318Z,101617.06
2022-08-23T08:34:20.774Z,101615.75
2022-08-23T08:36:53.917Z,101615.09
2022-08-23T08:39:27.046Z,101622.09
2022-08-23T08:42:28.725Z,101617.00
2022-08-23T08:45:00.910Z,101619.78
2022-08-23T08:47:53.092Z,101621.94
2022-08-23T08:50:27.514Z,101624.00
2022-08-23T08:53:09.447Z,101620.81
2022-08-23T08:56:00.555Z,101627.19
2022-08-23T08:58:45.593Z,101637.06
2022-08-23T09:01:16.783Z,101625.88
2022-08-23T09:03:46.198Z,101631.81
2022-08-23T09:06:22.451Z,101628.16
2022-08-23T09:09:02.171Z,101626.38
2022-08-23T09:11:48.031Z,101619.13
2022-08-23T09:14:38.878Z,101635.34
2022-08-23T09:17:16.289Z,101630.50
2022-08-23T09:19:46.990Z,101635.94
2022-08-23T09:22:21.140Z,101630.34
2022-08-23T09:24:48.806Z,101633.09
2022-08-23T09:27:23.512Z,101632.44
2022-08-23T09:30:01.295Z,101632.19
2022-08-23T09:32:35.862Z,101626.53
2022-08-23T09:35:28.850Z,101634.00
2022-08-23T09:38:21.533Z,101635.78
2022-08-23T09:40:54.132Z,101640.00
2022-08-23T09:43:26.251Z,101637.28
2022-08-23T09:45:56.974Z,101631.06
2022-08-23T09:48:33.569Z,101632.13
2022-08-23T09:51:26.212Z,101633.06
2022-08-23T09:54:13.691Z,101629.53
2022-08-23T09:56:45.311Z,101631.19
2022-08-23T09:59:26.774Z,101631.56
2022-08-23T10:02:02.279Z,101637.84
2022-08-23T10:04:37.746Z,101632.56
2022-08-23T10:07:42.708Z,101626.34
2022-08-23T10:10:26.275Z,101626.50
2022-08-23T10:12:59.169Z,101624.16
2022-08-23T10:15:37.541Z,101628.22
2022-08-23T10:18:11.769Z,101620.78
2022-08-23T10:21:05.099Z,101635.56
2022-08-23T10:23:51.014Z,101624.47
2022-08-23T10:26:26.494Z,101618.97
2022-08-23T10:29:12.379Z,101622.97
2022-08-23T10:31:50.770Z,101627.78
2022-08-23T10:34:45.956Z,101632.41
2022-08-23T10:37:15.979Z,101628.75
2022-08-23T10:40:09.738Z,101628.94
2022-08-23T10:42:53.426Z,101617.78
2022-08-23T10:45:34.709Z,101620.41
2022-08-23T10:48:29.398Z,101609.47
2022-08-23T10:51:01.988Z,101623.66
2022-08-23T10:53:36.261Z,101614.66
2022-08-23T10:56:05.031Z,101614.56
2022-08-23T10:58:41.430Z,101618.16
2022-08-23T11:01:10.260Z,101611.59
2022-08-23T11:03:43.199Z,101620.97
2022-08-23T11:06:35.159Z,101625.84
2022-08-23T11:09:11.614Z,101620.50
2022-08-23T11:11:45.359Z,101624.06
2022-08-23T11:14:26.826Z,101624.88
2022-08-23T11:17:01.297Z,101622.34
2022-08-23T11:19:55.962Z,101613.66
2022-08-23T11:22:31.155Z,101621.09
2022-08-23T11:25:26.261Z,101620.19
2022-08-23T11:28:24.178Z,101624.59
2022-08-23T11:31:11.936Z,101628.72
2022-08-23T11:33:53.751Z,101626.88
2022-08-23T11:36:27.608Z,101624.28
2022-08-23T11:38:58.036Z,101621.16
2022-08-23T11:41:34.363Z,101631.56
2022-08-23T11:44:07.141Z,101633.00
2022-08-23T11:46:37.442Z,101636.81
2022-08-23T11:49:12.728Z,101633.81
2022-08-23T11:51:52.597Z,101624.63
2022-08-23T11:54:34.828Z,101628.75
2022-08-23T11:57:26.349Z,101633.16
2022-08-23T12:00:26.030Z,101626.22
2022-08-23T12:03:20.236Z,101624.47
2022-08-23T12:05:54.127Z,101629.22
2022-08-23T12:08:22.909Z,101630.00
2022-08-23T12:10:51.172Z,101642.00
2022-08-23T12:13:18.217Z,101627.91
2022-08-23T12:16:16.893Z,101634.72
2022-08-23T12:18:47.659Z,101635.56
2022-08-23T12:21:23.753Z,101639.00
2022-08-23T12:24:01.439Z,101648.31
2022-08-23T12:26:45.365Z,101638.97
2022-08-23T12:29:39.581Z,101633.28
2022-08-23T12:32:51.419Z,101637.59
2022-08-23T12:35:55.868Z,101640.38
2022-08-23T12:38:41.046Z,101643.41
2022-08-23T12:41:23.150Z,101645.72
2022-08-23T12:43:58.947Z,101642.41
2022-08-23T12:46:33.261Z,101645.63
2022-08-23T12:49:00.537Z,101643.22
2022-08-23T12:51:27.938Z,101651.53
2022-08-23T12:53:55.490Z,101640.47
2022-08-23T12:56:32.220Z,101637.09
2022-08-23T12:59:07.643Z,101637.59
2022-08-23T13:01:37.664Z,101639.31
2022-08-23T13:04:14.423Z,101639.44
2022-08-23T13:06:51.388Z,101636.63
2022-08-23T13:09:21.799Z,101631.16
2022-08-23T13:11:49.133Z,101628.81
2022-08-23T13:14:33.942Z,101635.28
2022-08-23T13:17:33.100Z,101633.25
2022-08-23T13:20:02.950Z,101639.69
2022-08-23T13:22:32.361Z,101631.72
2022-08-23T13:25:31.958Z,101631.44
2022-08-23T13:28:02.897Z,101633.72
2022-08-23T13:30:33.971Z,101623.63
2022-08-23T13:33:21.794Z,101623.25
2022-08-23T13:36:05.965Z,101620.69
2022-08-23T13:38:41.943Z,101619.97
2022-08-23T13:41:14.148Z,101624.06
2022-08-23T13:43:44.262Z,101616.19
2022-08-23T13:46:26.932Z,101619.84
2022-08-23T13:49:02.495Z,101619.97
2022-08-23T13:52:11.909Z,101623.69
2022-08-23T13:54:45.979Z,101623.97
2022-08-23T13:57:18.123Z,101625.06
2022-08-23T13:59:54.038Z,101624.88
2022-08-23T14:02:24.645Z,101628.69
2022-08-23T14:04:52.226Z,101621.16
2022-08-23T14:07:19.903Z,101628.91
2022-08-23T14:09:47.135Z,101627.50
2022-08-23T14:12:21.283Z,101630.22
2022-08-23T14:14:50.091Z,101631.00
2022-08-23T14:17:20.447Z,101621.78
2022-08-23T14:20:33.040Z,101623.50
2022-08-23T14:22:36.595Z,101616.59
2022-08-23T14:25:04.327Z,101626.06
2022-08-23T14:27:31.463Z,101614.38
2022-08-23T14:29:58.855Z,101618.34
2022-08-23T14:32:26.025Z,101605.13
2022-08-23T14:34:52.993Z,101607.94
2022-08-23T14:38:02.087Z,101603.00
2022-08-23T14:40:09.337Z,101598.84
2022-08-23T14:42:36.639Z,101601.09
2022-08-23T14:45:04.588Z,101593.41
2022-08-23T14:47:31.600Z,101599.66
2022-08-23T14:49:58.769Z,101599.44
2022-08-23T14:52:25.604Z,101601.06
2022-08-23T14:54:52.573Z,101595.41
2022-08-23T14:57:20.094Z,101599.44
2022-08-23T14:59:46.973Z,101603.88
2022-08-23T15:02:24.820Z,101607.81
2022-08-23T15:04:53.276Z,101597.94
2022-08-23T15:07:20.541Z,101601.88
2022-08-23T15:09:54.695Z,101608.75
2022-08-23T15:15:12.790Z,101604.25
2022-08-23T15:17:58.780Z,101596.94
2022-08-23T15:20:34.782Z,101594.56
2022-08-23T15:23:04.250Z,101602.84
2022-08-23T15:25:33.780Z,101595.53
2022-08-23T15:28:04.158Z,101600.94
2022-08-23T15:30:33.504Z,101598.66
2022-08-23T15:33:00.912Z,101603.75
2022-08-23T15:35:28.838Z,101608.00
2022-08-23T15:37:57.340Z,101616.72
2022-08-23T15:40:25.566Z,101609.53
2022-08-23T15:42:53.387Z,101614.22
2022-08-23T15:45:20.267Z,101609.09
2022-08-23T15:47:56.238Z,101615.56
2022-08-23T15:50:26.498Z,101613.88
2022-08-23T15:52:54.486Z,101613.31
2022-08-23T15:55:21.635Z,101612.03
2022-08-23T15:57:51.891Z,101614.34
2022-08-23T16:00:22.622Z,101609.94
2022-08-23T16:03:20.684Z,101619.63
2022-08-23T16:05:39.672Z,101611.72
2022-08-23T16:08:07.756Z,101613.84
2022-08-23T16:10:35.091Z,101618.63
2022-08-23T16:13:03.833Z,101616.97
2022-08-23T16:15:31.595Z,101624.66
2022-08-23T16:17:58.711Z,101612.78
2022-08-23T16:20:25.965Z,101622.03
2022-08-23T16:22:53.123Z,101618.38
2022-08-23T16:25:20.203Z,101613.13
2022-08-23T16:27:47.346Z,101620.13
2022-08-23T16:30:14.570Z,101624.94
2022-08-23T16:32:41.724Z,101616.31
2022-08-23T16:35:09.589Z,101615.44
2022-08-23T16:37:36.534Z,101613.56
2022-08-23T16:40:07.380Z,101614.03
2022-08-23T16:42:34.443Z,101608.16
2022-08-23T16:45:01.861Z,101600.13
2022-08-23T16:47:41.367Z,101601.03
2022-08-23T16:50:09.521Z,101599.09
2022-08-23T16:52:36.490Z,101603.22
2022-08-23T16:55:09.954Z,101598.09
2022-08-23T16:57:37.075Z,101595.22
2022-08-23T17:00:07.621Z,101593.88
2022-08-23T17:02:37.188Z,101595.22
2022-08-23T17:05:07.290Z,101593.53
2022-08-23T17:07:34.381Z,101599.66
2022-08-23T17:10:01.440Z,101600.06
2022-08-23T17:12:28.762Z,101590.53
2022-08-23T17:14:57.288Z,101588.38
2022-08-23T17:17:25.362Z,101597.25
2022-08-23T17:19:52.364Z,101603.03
2022-08-23T17:22:19.544Z,101599.41
2022-08-23T17:24:46.472Z,101607.13
2022-08-23T17:27:19.245Z,101601.22
2022-08-23T17:29:46.552Z,101594.97
2022-08-23T17:32:14.359Z,101598.81
2022-08-23T17:34:41.424Z,101603.22
2022-08-23T17:37:21.051Z,101607.50
2022-08-23T17:39:50.232Z,101606.91
2022-08-23T17:42:21.470Z,101618.22
2022-08-23T17:44:48.747Z,101624.03
2022-08-23T17:47:17.278Z,101625.13
2022-08-23T17:49:46.206Z,101626.31
2022-08-23T17:52:13.844Z,101628.66
2022-08-23T17:54:41.443Z,101631.22
2022-08-23T17:57:11.426Z,101624.97
2022-08-23T17:59:38.393Z,101636.91
2022-08-23T18:02:06.044Z,101647.81
2022-08-23T18:04:33.412Z,101655.06
2022-08-23T18:07:00.355Z,101646.06
2022-08-23T18:09:27.475Z,101653.47
2022-08-23T18:11:54.679Z,101645.25
2022-08-23T18:14:23.592Z,101651.19
2022-08-23T18:16:51.255Z,101644.13
2022-08-23T18:19:18.498Z,101643.13
2022-08-23T18:21:46.654Z,101649.88
2022-08-23T18:24:14.336Z,101647.22
2022-08-23T18:27:00.609Z,101654.59
2022-08-23T18:29:28.929Z,101658.88
2022-08-23T18:31:55.907Z,101663.22
2022-08-23T18:34:23.174Z,101657.38
2022-08-23T18:36:50.024Z,101660.84
2022-08-23T18:39:17.944Z,101668.00
2022-08-23T18:42:01.600Z,101674.59
2022-08-23T18:44:29.346Z,101673.06
2022-08-23T18:46:56.395Z,101674.81
2022-08-23T18:49:23.470Z,101675.34
2022-08-23T18:51:50.328Z,101682.69
2022-08-23T18:54:17.191Z,101676.34
2022-08-23T18:56:44.499Z,101676.84
2022-08-23T18:59:13.026Z,101678.50
2022-08-23T19:01:41.338Z,101685.84
2022-08-23T19:04:10.020Z,101686.31
2022-08-23T19:06:38.131Z,101689.34
2022-08-23T19:09:07.330Z,101692.31
2022-08-23T19:11:35.021Z,101694.41
2022-08-23T19:14:02.326Z,101702.13
2022-08-23T19:16:30.668Z,101707.00
2022-08-23T19:18:58.226Z,101701.94
2022-08-23T19:21:26.640Z,101705.66
2022-08-23T19:23:55.681Z,101701.78
2022-08-23T19:26:29.092Z,101708.63
2022-08-23T19:28:56.362Z,101726.09
2022-08-23T19:31:25.100Z,101719.34
2022-08-23T19:33:52.231Z,101724.69
2022-08-23T19:36:42.699Z,101720.34
2022-08-23T19:39:06.632Z,101711.13
2022-08-23T19:41:33.891Z,101716.41
2022-08-23T19:44:00.892Z,101721.25
2022-08-23T19:46:27.950Z,101718.09
2022-08-23T19:48:54.883Z,101719.31
2022-08-23T19:51:21.979Z,101718.09
2022-08-23T19:54:04.577Z,101728.53
2022-08-23T19:56:33.747Z,101728.94
2022-08-23T19:59:05.364Z,101731.75
2022-08-23T20:01:32.899Z,101747.53
2022-08-23T20:03:59.690Z,101742.38
2022-08-23T20:06:26.948Z,101737.22
2022-08-23T20:08:54.211Z,101745.66
2022-08-23T20:11:21.613Z,101750.47
2022-08-23T20:13:50.137Z,101747.34
2022-08-23T20:16:17.636Z,101738.97
2022-08-23T20:18:44.533Z,101750.19
2022-08-23T20:21:11.524Z,101755.00
2022-08-23T20:23:59.483Z,101754.56
2022-08-23T20:26:29.270Z,101762.53
2022-08-23T20:28:59.706Z,101760.50
2022-08-23T20:31:35.210Z,101767.34
2022-08-23T20:34:04.682Z,101764.53
2022-08-23T20:36:33.372Z,101761.00
2022-08-23T20:39:01.988Z,101766.28
2022-08-23T20:41:31.653Z,101769.53
2022-08-23T20:43:59.424Z,101766.75
2022-08-23T20:46:26.581Z,101766.41
2022-08-23T20:48:54.425Z,101769.63
2022-08-23T20:51:21.313Z,101771.19
2022-08-23T20:53:48.434Z,101767.22
2022-08-23T20:56:16.835Z,101771.28
2022-08-23T20:58:44.803Z,101763.69
2022-08-23T21:01:13.195Z,101767.69
2022-08-23T21:03:40.849Z,101766.00
2022-08-23T21:06:28.645Z,101762.41
2022-08-23T21:08:59.024Z,101759.56
2022-08-23T21:11:28.265Z,101761.56
2022-08-23T21:13:56.697Z,101761.19
2022-08-23T21:16:23.928Z,101760.06
2022-08-23T21:18:52.162Z,101760.06
2022-08-23T21:21:23.143Z,101757.66
2022-08-23T21:23:50.841Z,101763.31
2022-08-23T21:26:17.856Z,101757.34
2022-08-23T21:28:45.152Z,101755.38
2022-08-23T21:31:15.953Z,101749.00
2022-08-23T21:33:44.655Z,101749.81
2022-08-23T21:36:14.208Z,101743.41
2022-08-23T21:38:41.669Z,101743.41
2022-08-23T21:41:11.492Z,101744.25
2022-08-23T21:43:39.128Z,101741.09
2022-08-23T21:46:07.240Z,101747.50
2022-08-23T21:48:34.945Z,101740.72
2022-08-23T21:51:01.919Z,101731.88
2022-08-23T21:53:28.729Z,101735.50
2022-08-23T21:55:55.821Z,101730.34
2022-08-23T21:58:22.697Z,101728.34
2022-08-23T22:00:49.593Z,101727.19
2022-08-23T22:03:16.807Z,101731.56
2022-08-23T22:05:45.759Z,101732.41
2022-08-23T22:08:14.621Z,101732.81
2022-08-23T22:10:57.066Z,101736.41
2022-08-23T22:13:28.779Z,101731.19
2022-08-23T22:15:56.408Z,101730.81
2022-08-23T22:18:23.388Z,101733.28
2022-08-23T22:20:50.365Z,101739.66
2022-08-23T22:23:17.397Z,101734.09
2022-08-23T22:25:44.946Z,101740.91
2022-08-23T22:28:11.826Z,101744.53
2022-08-23T22:30:41.265Z,101732.50
2022-08-23T22:33:08.120Z,101737.41
2022-08-23T22:35:36.377Z,101733.88
2022-08-23T22:38:13.779Z,101738.31
2022-08-23T22:40:51.137Z,101733.53
2022-08-23T22:43:19.631Z,101724.31
2022-08-23T22:45:54.751Z,101727.50
2022-08-23T22:48:23.249Z,101743.53
2022-08-23T22:50:50.604Z,101734.31
2022-08-23T22:53:17.967Z,101730.72
2022-08-23T22:55:53.794Z,101733.94
2022-08-23T22:58:20.598Z,101727.94
2022-08-23T23:00:47.565Z,101737.16
2022-08-23T23:03:14.440Z,101735.59
2022-08-23T23:05:41.466Z,101731.59
2022-08-23T23:08:34.434Z,101736.00
2022-08-23T23:11:03.686Z,101736.03
2022-08-23T23:13:31.603Z,101731.66
2022-08-23T23:16:02.868Z,101732.84
2022-08-23T23:18:29.981Z,101726.47
2022-08-23T23:21:02.294Z,101735.72
2022-08-23T23:23:30.974Z,101732.53
2022-08-23T23:25:58.663Z,101725.69
2022-08-23T23:28:25.811Z,101732.94
2022-08-23T23:30:54.655Z,101726.94
2022-08-23T23:33:22.406Z,101726.16
2022-08-23T23:35:51.947Z,101720.16
2022-08-23T23:38:19.055Z,101722.56
2022-08-23T23:40:46.244Z,101714.56
2022-08-23T23:43:13.489Z,101718.97
2022-08-23T23:45:41.391Z,101716.19
2022-08-23T23:48:08.902Z,101718.22
2022-08-23T23:50:36.900Z,101717.78
2022-08-23T23:53:04.896Z,101728.63
2022-08-23T23:55:31.711Z,101719.41
2022-08-23T23:57:58.669Z,101718.22
